Time;durP1;ratioP1;P1;durP2;ratioP2;P2;SDS_P1;SDS_P2;PMS_P1;PMS_P2;Temp;Humidity;BMP_temperature;BMP_pressure;BME280_temperature;BME280_humidity;BME280_pressure;Samples;Min_cycle;Max_cycle;Signal;HPM_P1;HPM_P2
2023/09/16 04:01:07;;;;;;;0.10;0.10;;;13.10;99.90;;;;;;5563752;23;20495;-72
2023/09/16 04:03:35;;;;;;;0.10;0.10;;;13.10;99.90;;;;;;4937993;28;20476;-72
2023/09/16 04:06:04;;;;;;;0.10;0.10;;;13.00;99.90;;;;;;4951664;29;20831;-72
2023/09/16 04:08:31;;;;;;;0.10;0.10;;;13.00;99.90;;;;;;4948078;28;20472;-72
2023/09/16 04:10:58;;;;;;;0.10;0.10;;;13.00;99.90;;;;;;4942671;28;20487;-72
2023/09/16 04:13:24;;;;;;;0.10;0.10;;;13.00;99.90;;;;;;4953282;29;20515;-72
2023/09/16 04:15:51;;;;;;;0.10;0.10;;;12.90;99.90;;;;;;4941911;29;20504;-72
2023/09/16 04:18:19;;;;;;;0.10;0.10;;;12.90;99.90;;;;;;4968661;23;20497;-70
2023/09/16 04:20:48;;;;;;;0.10;0.10;;;12.90;99.90;;;;;;4936819;29;20465;-71
2023/09/16 04:23:15;;;;;;;0.10;0.10;;;12.90;99.90;;;;;;4936656;29;20462;-69
2023/09/16 04:25:41;;;;;;;0.10;0.10;;;12.80;99.90;;;;;;4936525;29;20458;-69
2023/09/16 04:28:09;;;;;;;0.10;0.10;;;12.80;99.90;;;;;;4925660;29;20494;-71
2023/09/16 04:30:40;;;;;;;0.10;0.10;;;12.80;99.90;;;;;;4917618;29;20557;-69
2023/09/16 04:33:09;;;;;;;0.10;0.10;;;12.80;99.90;;;;;;4918081;29;20837;-69
2023/09/16 04:35:45;;;;;;;0.10;0.10;;;12.70;99.90;;;;;;4917420;29;21012;-69
2023/09/16 04:38:12;;;;;;;0.10;0.10;;;12.70;99.90;;;;;;4917427;29;20494;-69
2023/09/16 04:40:38;;;;;;;0.10;0.10;;;12.70;99.90;;;;;;4917735;29;20466;-69
2023/09/16 04:43:06;;;;;;;0.10;0.10;;;12.70;99.90;;;;;;4917588;29;20470;-69
2023/09/16 04:45:32;;;;;;;0.10;0.10;;;12.70;99.90;;;;;;4917435;29;20462;-70
2023/09/16 04:48:00;;;;;;;0.10;0.10;;;12.70;99.90;;;;;;4917379;29;20854;-70
2023/09/16 04:50:28;;;;;;;0.10;0.10;;;12.60;99.90;;;;;;4916921;29;20561;-70
2023/09/16 04:52:58;;;;;;;0.10;0.10;;;12.60;99.90;;;;;;4917484;29;20530;-69
2023/09/16 04:55:26;;;;;;;0.10;0.10;;;12.60;99.90;;;;;;4916906;29;20522;-70
2023/09/16 04:57:52;;;;;;;0.10;0.10;;;12.60;99.90;;;;;;4916800;29;20522;-70
2023/09/16 05:00:20;;;;;;;0.10;0.10;;;12.60;99.90;;;;;;4916862;29;20827;-70
2023/09/16 05:02:50;;;;;;;0.10;0.10;;;12.60;99.90;;;;;;4917156;29;20467;-70
2023/09/16 05:05:17;;;;;;;0.10;0.10;;;12.60;99.90;;;;;;4917068;29;20949;-71
2023/09/16 05:07:43;;;;;;;0.10;0.10;;;12.60;99.90;;;;;;4922230;29;20494;-71
2023/09/16 05:10:14;;;;;;;0.10;0.10;;;12.60;99.90;;;;;;4922513;29;20471;-70
2023/09/16 05:12:41;;;;;;;0.10;0.10;;;12.60;99.90;;;;;;4918062;29;20883;-70
2023/09/16 05:15:09;;;;;;;0.10;0.10;;;12.60;99.90;;;;;;4916892;29;20489;-70
2023/09/16 05:17:36;;;;;;;0.10;0.10;;;12.60;99.90;;;;;;4916501;29;20509;-70
2023/09/16 05:20:04;;;;;;;0.10;0.10;;;12.70;99.90;;;;;;4916757;29;20474;-70
2023/09/16 05:22:31;;;;;;;0.10;0.10;;;12.70;99.90;;;;;;4916826;29;20557;-70
2023/09/16 05:24:58;;;;;;;0.10;0.10;;;12.70;99.90;;;;;;4916460;29;20949;-70
2023/09/16 05:27:26;;;;;;;0.10;0.10;;;12.70;99.90;;;;;;4916522;29;20518;-69
2023/09/16 05:29:54;;;;;;;0.10;0.10;;;12.70;99.90;;;;;;4916407;29;20477;-69
2023/09/16 05:32:22;;;;;;;0.10;0.10;;;12.80;99.90;;;;;;4916296;29;20468;-70
2023/09/16 05:34:49;;;;;;;0.10;0.10;;;12.80;99.90;;;;;;4916499;29;20489;-70
2023/09/16 05:37:15;;;;;;;0.10;0.10;;;12.90;99.90;;;;;;4916338;29;20498;-70
2023/09/16 05:39:42;;;;;;;0.10;0.10;;;13.00;99.90;;;;;;4927442;29;20488;-70
2023/09/16 05:42:09;;;;;;;0.10;0.10;;;13.00;99.90;;;;;;4935229;29;20469;-69
2023/09/16 05:44:37;;;;;;;0.10;0.10;;;13.10;99.90;;;;;;4935427;29;20948;-70
2023/09/16 05:47:04;;;;;;;0.10;0.10;;;13.10;99.90;;;;;;4935518;29;20488;-69
2023/09/16 05:49:31;;;;;;;0.10;0.10;;;13.20;99.90;;;;;;4934968;29;20995;-70
2023/09/16 05:51:58;;;;;;;0.10;0.10;;;13.20;99.90;;;;;;4935020;29;20476;-69
2023/09/16 05:54:27;;;;;;;0.10;0.10;;;13.30;99.90;;;;;;4935006;29;20496;-69
2023/09/16 05:56:53;;;;;;;0.10;0.10;;;13.40;99.90;;;;;;4934908;29;20494;-70
2023/09/16 05:59:21;;;;;;;0.10;0.10;;;13.40;99.90;;;;;;4934811;29;20475;-70
2023/09/16 06:01:49;;;;;;;0.10;0.10;;;13.50;99.90;;;;;;4934980;29;20554;-70
2023/09/16 06:04:16;;;;;;;0.30;0.30;;;13.60;99.90;;;;;;4935069;29;20469;-70
2023/09/16 06:06:42;;;;;;;0.10;0.10;;;13.60;99.90;;;;;;4935144;29;20461;-69
2023/09/16 06:09:09;;;;;;;0.10;0.10;;;13.70;99.90;;;;;;4935482;29;20493;-70
2023/09/16 06:11:36;;;;;;;0.10;0.10;;;13.80;99.90;;;;;;4935036;29;20472;-70
2023/09/16 06:14:03;;;;;;;0.10;0.10;;;13.90;99.90;;;;;;4935264;29;20472;-69
2023/09/16 06:16:30;;;;;;;0.10;0.10;;;14.00;99.90;;;;;;4934989;29;20842;-69
2023/09/16 06:18:58;;;;;;;0.10;0.10;;;14.00;99.90;;;;;;4934582;29;20505;-70
2023/09/16 06:21:24;;;;;;;0.10;0.10;;;14.10;99.90;;;;;;4934679;29;20971;-69
2023/09/16 06:23:51;;;;;;;0.10;0.10;;;14.10;99.90;;;;;;4934785;29;20472;-69
2023/09/16 06:26:18;;;;;;;0.20;0.20;;;14.20;99.90;;;;;;4934673;29;20814;-70
2023/09/16 06:28:44;;;;;;;0.20;0.20;;;14.30;99.90;;;;;;4934739;29;20493;-69
2023/09/16 06:31:11;;;;;;;0.10;0.10;;;14.40;99.90;;;;;;4934732;29;20476;-69
2023/09/16 06:33:38;;;;;;;0.10;0.10;;;14.50;99.90;;;;;;4934723;29;20477;-70
2023/09/16 06:36:06;;;;;;;0.20;0.20;;;14.60;99.90;;;;;;4934845;29;20500;-70
2023/09/16 06:38:33;;;;;;;0.10;0.10;;;14.70;99.90;;;;;;4934501;29;20489;-70
2023/09/16 06:40:59;;;;;;;0.20;0.20;;;14.70;99.90;;;;;;4934332;29;20477;-69
2023/09/16 06:43:26;;;;;;;0.10;0.10;;;14.80;99.90;;;;;;4934625;29;20469;-69
2023/09/16 06:45:53;;;;;;;0.10;0.10;;;14.80;99.90;;;;;;4934736;29;20466;-69
2023/09/16 06:48:19;;;;;;;0.10;0.10;;;14.90;99.90;;;;;;4934391;29;20492;-70
2023/09/16 06:50:46;;;;;;;0.10;0.10;;;15.00;99.90;;;;;;4934212;29;20983;-69
2023/09/16 06:53:14;;;;;;;0.10;0.10;;;15.00;99.90;;;;;;4934524;29;20845;-69
2023/09/16 06:55:41;;;;;;;0.10;0.10;;;15.10;99.90;;;;;;4934204;29;20476;-70
2023/09/16 06:58:07;;;;;;;0.10;0.10;;;15.20;99.90;;;;;;4934554;29;20524;-71
2023/09/16 07:00:35;;;;;;;0.10;0.10;;;15.30;99.90;;;;;;4934165;29;20918;-70
2023/09/16 07:03:04;;;;;;;0.20;0.20;;;15.30;99.90;;;;;;4934635;29;20469;-70
2023/09/16 07:05:30;;;;;;;0.10;0.10;;;15.40;99.90;;;;;;4934326;29;20476;-70
2023/09/16 07:07:58;;;;;;;0.10;0.10;;;15.40;99.90;;;;;;4934274;29;20485;-70
2023/09/16 07:10:26;;;;;;;0.10;0.10;;;15.50;99.90;;;;;;4934317;29;20505;-70
2023/09/16 07:12:53;;;;;;;0.10;0.10;;;15.60;99.90;;;;;;4934498;29;20875;-69
2023/09/16 07:15:20;;;;;;;0.10;0.10;;;15.70;99.90;;;;;;4934281;29;20492;-69
2023/09/16 07:17:47;;;;;;;0.10;0.10;;;15.80;99.90;;;;;;4934127;29;20874;-70
2023/09/16 07:20:14;;;;;;;0.10;0.10;;;15.80;99.90;;;;;;4936238;29;20465;-69
2023/09/16 07:22:40;;;;;;;0.10;0.10;;;15.90;99.90;;;;;;4938134;29;20477;-69
2023/09/16 07:25:08;;;;;;;0.10;0.10;;;16.00;99.90;;;;;;4937852;29;20556;-70
2023/09/16 07:27:36;;;;;;;0.10;0.10;;;16.10;99.90;;;;;;4937751;29;20482;-70
2023/09/16 07:30:02;;;;;;;0.10;0.10;;;16.20;99.90;;;;;;4937438;29;20476;-70
2023/09/16 07:32:29;;;;;;;0.10;0.10;;;16.20;99.90;;;;;;4938018;29;20840;-70
2023/09/16 07:34:56;;;;;;;0.10;0.10;;;16.30;99.90;;;;;;4937611;29;20557;-70
2023/09/16 07:37:22;;;;;;;0.10;0.10;;;16.30;99.90;;;;;;4937065;29;20672;-70
2023/09/16 07:39:51;;;;;;;0.10;0.10;;;16.50;99.90;;;;;;4937395;29;20928;-70
2023/09/16 07:42:17;;;;;;;0.10;0.10;;;16.60;99.90;;;;;;4937116;29;20474;-70
2023/09/16 07:44:45;;;;;;;0.10;0.10;;;16.70;99.90;;;;;;4937533;29;20474;-70
2023/09/16 07:47:12;;;;;;;0.33;0.33;;;16.80;99.90;;;;;;4937344;29;20494;-70
2023/09/16 07:49:39;;;;;;;0.10;0.10;;;16.80;99.90;;;;;;4937139;29;20480;-70
2023/09/16 07:52:05;;;;;;;0.70;0.70;;;16.90;99.90;;;;;;4937015;29;20472;-70
2023/09/16 07:54:32;;;;;;;0.10;0.10;;;17.00;99.90;;;;;;4937236;29;20504;-70
2023/09/16 07:56:59;;;;;;;0.50;0.50;;;17.10;99.90;;;;;;4937051;29;20492;-70
2023/09/16 07:59:27;;;;;;;0.10;0.10;;;17.20;99.90;;;;;;4938508;29;20470;-71
2023/09/16 08:01:55;;;;;;;0.10;0.10;;;17.30;99.90;;;;;;4939319;29;20476;-71
2023/09/16 08:04:22;;;;;;;0.10;0.10;;;17.40;99.90;;;;;;4939151;29;20474;-70
2023/09/16 08:06:49;;;;;;;0.10;0.10;;;17.40;99.90;;;;;;4938085;29;21283;-71
2023/09/16 08:09:16;;;;;;;0.30;0.30;;;17.50;99.90;;;;;;4929933;29;20471;-71
2023/09/16 08:11:43;;;;;;;0.10;0.10;;;17.60;99.90;;;;;;4929946;29;20468;-70
2023/09/16 08:14:10;;;;;;;0.20;0.20;;;17.70;99.90;;;;;;4928967;29;20464;-71
2023/09/16 08:16:36;;;;;;;0.10;0.10;;;17.70;99.90;;;;;;4926421;29;20500;-71
2023/09/16 08:19:04;;;;;;;0.10;0.10;;;17.70;99.90;;;;;;4931366;29;20492;-71
2023/09/16 08:21:31;;;;;;;0.10;0.10;;;17.80;99.90;;;;;;4919389;29;20472;-71
2023/09/16 08:23:58;;;;;;;0.10;0.10;;;17.80;99.90;;;;;;4925888;29;20470;-70
2023/09/16 08:26:24;;;;;;;0.10;0.10;;;17.90;99.90;;;;;;4934436;29;20469;-70
2023/09/16 08:28:51;;;;;;;0.10;0.10;;;18.00;99.90;;;;;;4929012;29;20830;-70
2023/09/16 08:31:18;;;;;;;0.10;0.10;;;18.10;99.90;;;;;;4927232;29;20467;-70
2023/09/16 08:33:44;;;;;;;0.10;0.10;;;18.20;99.90;;;;;;4917755;29;20478;-70
2023/09/16 08:36:12;;;;;;;0.20;0.20;;;18.30;99.90;;;;;;4917776;29;20471;-70
2023/09/16 08:38:39;;;;;;;0.10;0.10;;;18.50;99.90;;;;;;4917347;29;20504;-70
2023/09/16 08:41:14;;;;;;;0.10;0.10;;;18.70;99.90;;;;;;4917124;29;20466;-70
2023/09/16 08:43:42;;;;;;;0.10;0.10;;;18.70;99.90;;;;;;4917274;29;20564;-70
2023/09/16 08:46:11;;;;;;;0.10;0.10;;;18.80;99.90;;;;;;4916989;29;20470;-70
2023/09/16 08:48:42;;;;;;;0.10;0.10;;;18.80;99.90;;;;;;4916975;29;20942;-70
2023/09/16 08:51:12;;;;;;;0.10;0.10;;;18.90;99.90;;;;;;4916978;29;20470;-70
2023/09/16 08:53:42;;;;;;;0.10;0.10;;;19.00;99.90;;;;;;4916894;29;21078;-71
2023/09/16 08:56:09;;;;;;;0.20;0.20;;;19.00;99.90;;;;;;4916937;29;20473;-70
2023/09/16 08:58:36;;;;;;;0.50;0.50;;;19.00;99.90;;;;;;4916920;29;20502;-70
2023/09/16 09:01:03;;;;;;;0.10;0.10;;;19.20;99.90;;;;;;4917698;29;20466;-70
2023/09/16 09:03:30;;;;;;;0.10;0.10;;;19.30;99.90;;;;;;4917364;29;20478;-70
2023/09/16 09:05:58;;;;;;;0.10;0.10;;;19.40;99.90;;;;;;4917643;29;20529;-70
2023/09/16 09:08:24;;;;;;;0.10;0.10;;;19.50;99.90;;;;;;4917164;29;20499;-70
2023/09/16 09:10:52;;;;;;;0.10;0.10;;;19.50;99.90;;;;;;4917604;29;20472;-70
2023/09/16 09:13:20;;;;;;;0.10;0.10;;;19.60;99.90;;;;;;4917484;29;20474;-70
2023/09/16 09:15:48;;;;;;;0.10;0.10;;;19.60;99.90;;;;;;4917066;29;20470;-70
2023/09/16 09:18:18;;;;;;;0.20;0.20;;;19.80;99.90;;;;;;4916975;29;20563;-70
2023/09/16 09:20:45;;;;;;;0.10;0.10;;;19.90;99.90;;;;;;4928368;29;20466;-71
2023/09/16 09:23:11;;;;;;;0.20;0.20;;;20.00;99.90;;;;;;4936139;29;20467;-70
2023/09/16 09:25:41;;;;;;;0.10;0.10;;;20.00;99.90;;;;;;4935898;29;20464;-70
2023/09/16 09:28:09;;;;;;;0.10;0.10;;;20.10;99.90;;;;;;4935938;29;20477;-70
2023/09/16 09:30:36;;;;;;;0.20;0.20;;;20.20;99.90;;;;;;4935767;29;20466;-70
2023/09/16 09:33:03;;;;;;;0.10;0.10;;;20.40;99.90;;;;;;4935658;29;20528;-70
2023/09/16 09:35:32;;;;;;;0.10;0.10;;;20.40;99.90;;;;;;4935533;29;20951;-71
2023/09/16 09:37:59;;;;;;;0.40;0.40;;;20.50;99.90;;;;;;4935871;29;20511;-70
2023/09/16 09:40:27;;;;;;;0.10;0.10;;;20.60;99.90;;;;;;4935426;29;20469;-70
2023/09/16 09:42:55;;;;;;;0.10;0.10;;;20.60;99.90;;;;;;4935669;29;20471;-70
2023/09/16 09:45:25;;;;;;;0.10;0.10;;;20.70;99.90;;;;;;4937309;29;20472;-70
2023/09/16 09:47:53;;;;;;;0.10;0.10;;;20.60;99.90;;;;;;4937499;29;20831;-70
2023/09/16 09:50:22;;;;;;;0.10;0.10;;;20.70;99.90;;;;;;4927018;29;20474;-70
2023/09/16 09:52:49;;;;;;;0.10;0.10;;;20.80;99.90;;;;;;4916457;29;20979;-70
2023/09/16 09:55:17;;;;;;;0.40;0.40;;;21.10;99.90;;;;;;4916508;29;20474;-68
2023/09/16 09:57:45;;;;;;;0.10;0.10;;;21.20;99.90;;;;;;4916446;29;21087;-70
2023/09/16 10:00:15;;;;;;;0.20;0.20;;;21.20;99.90;;;;;;4916427;29;20524;-69
2023/09/16 10:02:44;;;;;;;0.10;0.10;;;21.30;99.90;;;;;;4927657;29;20468;-69
2023/09/16 10:05:15;;;;;;;0.53;0.53;;;21.40;99.90;;;;;;4935243;29;20467;-69
2023/09/16 10:07:42;;;;;;;0.10;0.10;;;21.50;99.90;;;;;;4935492;29;20484;-70
2023/09/16 10:10:13;;;;;;;0.20;0.20;;;21.60;99.90;;;;;;4935189;29;20497;-70
2023/09/16 10:12:41;;;;;;;0.10;0.10;;;21.60;99.90;;;;;;4935180;29;20476;-70
2023/09/16 10:15:08;;;;;;;0.10;0.10;;;21.60;99.90;;;;;;4935451;29;20898;-69
2023/09/16 10:17:35;;;;;;;1.90;0.87;;;21.70;99.90;;;;;;4954429;23;20504;-72
2023/09/16 10:20:04;;;;;;;0.10;0.10;;;21.80;99.90;;;;;;4954006;28;20471;-72
2023/09/16 10:22:30;;;;;;;0.20;0.20;;;21.80;99.90;;;;;;4955878;28;20471;-72
2023/09/16 10:24:57;;;;;;;0.10;0.10;;;21.80;99.90;;;;;;4952141;28;20468;-72
2023/09/16 10:27:29;;;;;;;0.10;0.10;;;22.00;99.90;;;;;;4951201;28;20495;-72
2023/09/16 10:29:57;;;;;;;0.10;0.10;;;22.00;99.90;;;;;;4934979;29;20465;-72
2023/09/16 10:32:24;;;;;;;0.10;0.10;;;21.90;99.90;;;;;;4934762;29;21041;-72
2023/09/16 10:34:52;;;;;;;0.10;0.10;;;22.00;99.90;;;;;;4942595;29;20565;-71
2023/09/16 10:37:21;;;;;;;0.10;0.10;;;22.20;99.90;;;;;;4942278;28;20488;-72
2023/09/16 10:39:49;;;;;;;0.10;0.10;;;22.20;99.90;;;;;;4942367;29;20485;-71
2023/09/16 10:42:17;;;;;;;0.10;0.10;;;22.20;99.90;;;;;;4934399;29;20479;-71
2023/09/16 10:44:44;;;;;;;0.10;0.10;;;22.20;99.90;;;;;;4934238;29;20469;-72
2023/09/16 10:47:11;;;;;;;0.10;0.10;;;22.30;99.90;;;;;;4934329;29;20462;-72
2023/09/16 10:49:38;;;;;;;0.10;0.10;;;22.40;99.90;;;;;;4934399;29;20479;-72
2023/09/16 10:52:07;;;;;;;0.20;0.20;;;22.40;99.90;;;;;;4934308;29;20522;-72
2023/09/16 10:54:41;;;;;;;0.10;0.10;;;22.40;99.90;;;;;;4935682;29;20464;-73
2023/09/16 10:57:16;;;;;;;0.10;0.10;;;22.50;99.90;;;;;;4937972;29;20580;-73
2023/09/16 10:59:45;;;;;;;0.10;0.10;;;22.60;99.90;;;;;;4938437;29;20835;-72
2023/09/16 11:02:18;;;;;;;0.20;0.20;;;22.60;99.90;;;;;;4937609;29;20536;-72
2023/09/16 11:04:46;;;;;;;0.10;0.10;;;22.70;99.90;;;;;;4937793;29;20469;-72
2023/09/16 11:07:14;;;;;;;0.10;0.10;;;22.70;99.90;;;;;;4938197;29;20466;-72
2023/09/16 11:09:43;;;;;;;0.10;0.10;;;22.60;99.90;;;;;;4937827;29;20469;-73
2023/09/16 11:12:10;;;;;;;0.10;0.10;;;22.70;99.90;;;;;;4945561;29;20932;-72
2023/09/16 11:14:38;;;;;;;0.20;0.20;;;22.80;99.90;;;;;;4937682;29;20470;-72
2023/09/16 11:17:13;;;;;;;0.10;0.10;;;22.80;99.90;;;;;;4937725;29;20466;-72
2023/09/16 11:19:39;;;;;;;0.10;0.10;;;22.90;99.90;;;;;;4937540;29;20465;-72
2023/09/16 11:22:06;;;;;;;0.10;0.10;;;22.90;99.90;;;;;;4945350;29;20983;-73
2023/09/16 11:24:34;;;;;;;0.10;0.10;;;22.90;99.90;;;;;;4937629;29;20497;-72
2023/09/16 11:27:03;;;;;;;0.10;0.10;;;22.90;99.90;;;;;;4937544;29;20484;-72
2023/09/16 11:29:31;;;;;;;0.10;0.10;;;23.10;99.90;;;;;;4937351;29;20986;-72
2023/09/16 11:31:58;;;;;;;0.10;0.10;;;23.10;99.90;;;;;;4937661;29;20832;-72
2023/09/16 11:34:27;;;;;;;0.10;0.10;;;23.20;99.90;;;;;;4937812;29;20591;-71
2023/09/16 11:36:55;;;;;;;0.10;0.10;;;23.20;99.90;;;;;;4937569;29;20856;-72
2023/09/16 11:39:24;;;;;;;0.10;0.10;;;23.20;99.90;;;;;;4946266;29;20561;-72
2023/09/16 11:41:52;;;;;;;0.10;0.10;;;23.10;99.90;;;;;;4944450;28;20557;-73
2023/09/16 11:44:21;;;;;;;0.30;0.30;;;23.20;99.90;;;;;;4937338;29;20958;-73
2023/09/16 11:46:48;;;;;;;0.10;0.10;;;23.30;99.90;;;;;;4937594;29;20474;-72
2023/09/16 11:49:16;;;;;;;0.10;0.10;;;23.30;99.90;;;;;;4938447;29;20497;-73
2023/09/16 11:51:45;;;;;;;0.10;0.10;;;23.30;99.90;;;;;;4938377;29;20487;-72
2023/09/16 11:54:13;;;;;;;0.20;0.20;;;23.20;99.90;;;;;;4946317;29;20462;-72
2023/09/16 11:56:40;;;;;;;0.20;0.20;;;23.40;99.90;;;;;;4947392;29;20482;-72
2023/09/16 11:59:07;;;;;;;0.10;0.10;;;23.50;99.90;;;;;;4938435;29;20591;-72
2023/09/16 12:01:36;;;;;;;0.10;0.10;;;23.60;99.90;;;;;;4940508;29;20497;-69
2023/09/16 12:04:06;;;;;;;0.10;0.10;;;23.50;99.90;;;;;;4942641;28;20473;-69
2023/09/16 12:06:35;;;;;;;0.10;0.10;;;23.50;99.90;;;;;;4937420;29;20473;-70
2023/09/16 12:09:03;;;;;;;0.10;0.10;;;23.50;99.90;;;;;;4937713;29;20519;-69
2023/09/16 12:11:32;;;;;;;0.10;0.10;;;23.50;99.90;;;;;;4937222;29;20473;-70
2023/09/16 12:14:00;;;;;;;0.10;0.10;;;23.60;99.90;;;;;;4940929;29;20476;-70
2023/09/16 12:16:27;;;;;;;0.10;0.10;;;23.50;99.90;;;;;;4940309;29;20478;-70
2023/09/16 12:18:55;;;;;;;0.30;0.30;;;23.60;99.90;;;;;;4938351;29;20542;-69
2023/09/16 12:21:22;;;;;;;0.10;0.10;;;23.60;99.90;;;;;;4937500;29;20476;-71
2023/09/16 12:23:49;;;;;;;0.10;0.10;;;23.60;99.90;;;;;;4948795;28;20954;-69
2023/09/16 12:26:17;;;;;;;0.10;0.10;;;23.50;99.90;;;;;;4948712;28;20474;-74
2023/09/16 12:28:44;;;;;;;0.10;0.10;;;23.50;99.90;;;;;;4945335;28;20577;-73
2023/09/16 12:31:11;;;;;;;0.10;0.10;;;23.70;99.90;;;;;;4936933;29;20467;-72
2023/09/16 12:33:43;;;;;;;0.10;0.10;;;23.60;99.90;;;;;;4937254;29;20478;-73
2023/09/16 12:36:15;;;;;;;0.60;0.60;;;23.70;99.90;;;;;;4945381;29;20468;-73
2023/09/16 12:38:43;;;;;;;0.10;0.10;;;23.80;99.90;;;;;;4945048;28;20566;-74
2023/09/16 12:41:12;;;;;;;0.20;0.20;;;23.80;99.90;;;;;;4945380;29;20474;-72
2023/09/16 12:43:41;;;;;;;2.40;0.93;;;23.90;99.90;;;;;;4937548;29;20478;-73
2023/09/16 12:46:08;;;;;;;0.10;0.10;;;23.90;99.90;;;;;;4938262;29;20472;-73
2023/09/16 12:48:38;;;;;;;0.10;0.10;;;23.90;99.90;;;;;;4946960;29;20488;-74
2023/09/16 12:51:06;;;;;;;0.10;0.10;;;23.80;99.90;;;;;;4952530;29;20473;-74
2023/09/16 12:53:34;;;;;;;0.30;0.30;;;23.80;99.90;;;;;;4955561;28;20488;-74
2023/09/16 12:56:02;;;;;;;0.10;0.10;;;23.90;99.90;;;;;;4936447;29;20979;-73
2023/09/16 12:58:30;;;;;;;0.10;0.10;;;23.90;99.90;;;;;;4938240;29;20501;-72
2023/09/16 13:00:56;;;;;;;0.10;0.10;;;23.80;99.90;;;;;;4942238;28;20920;-73
2023/09/16 13:03:23;;;;;;;0.10;0.10;;;23.90;99.90;;;;;;4943898;29;20490;-74
2023/09/16 13:05:51;;;;;;;0.10;0.10;;;23.90;99.90;;;;;;4940297;29;20803;-73
2023/09/16 13:08:19;;;;;;;0.10;0.10;;;23.90;99.90;;;;;;4939033;28;20523;-74
2023/09/16 13:10:48;;;;;;;0.10;0.10;;;23.90;99.90;;;;;;4955256;28;20566;-74
2023/09/16 13:13:15;;;;;;;0.10;0.10;;;23.90;99.90;;;;;;4947418;28;20472;-73
2023/09/16 13:15:44;;;;;;;0.10;0.10;;;24.00;99.90;;;;;;4947622;28;20464;-73
2023/09/16 13:18:11;;;;;;;0.23;0.23;;;24.00;99.90;;;;;;4947575;28;20504;-73
2023/09/16 13:20:40;;;;;;;0.10;0.10;;;24.10;99.90;;;;;;4943594;29;20477;-74
2023/09/16 13:23:08;;;;;;;0.10;0.10;;;24.00;99.90;;;;;;4935967;29;20966;-73
2023/09/16 13:25:40;;;;;;;0.10;0.10;;;24.00;99.90;;;;;;4938343;29;20700;-72
2023/09/16 13:28:10;;;;;;;0.10;0.10;;;24.10;99.90;;;;;;4946948;28;20485;-71
2023/09/16 13:30:37;;;;;;;0.10;0.10;;;24.10;99.90;;;;;;4946848;28;20899;-72
2023/09/16 13:33:06;;;;;;;0.10;0.10;;;24.20;99.90;;;;;;4940547;28;21077;-72
2023/09/16 13:35:34;;;;;;;0.10;0.10;;;24.10;99.90;;;;;;4935436;29;20527;-72
2023/09/16 13:38:01;;;;;;;0.10;0.10;;;24.10;99.90;;;;;;4943075;28;20501;-72
2023/09/16 13:40:28;;;;;;;0.10;0.10;;;24.10;99.90;;;;;;4944458;29;20472;-72
2023/09/16 13:42:54;;;;;;;0.10;0.10;;;24.10;99.90;;;;;;4946636;28;20470;-72
2023/09/16 13:45:23;;;;;;;0.10;0.10;;;24.00;99.90;;;;;;4945871;28;20475;-72
2023/09/16 13:48:08;;;;;;;0.10;0.10;;;24.00;99.90;;;;;;4935158;29;20868;-72
2023/09/16 13:50:35;;;;;;;0.10;0.10;;;24.00;99.90;;;;;;4934944;29;20469;-72
2023/09/16 13:53:03;;;;;;;0.10;0.10;;;24.00;99.90;;;;;;4941102;29;20805;-72
2023/09/16 13:55:31;;;;;;;0.10;0.10;;;24.00;99.90;;;;;;4944596;28;20476;-72
2023/09/16 13:57:57;;;;;;;0.10;0.10;;;24.00;99.90;;;;;;4934489;29;21014;-72
2023/09/16 14:00:26;;;;;;;0.10;0.10;;;24.00;99.90;;;;;;4943257;29;20845;-71
2023/09/16 14:02:53;;;;;;;0.10;0.10;;;24.00;99.90;;;;;;4946593;28;20467;-72
2023/09/16 14:05:19;;;;;;;0.10;0.10;;;23.90;99.90;;;;;;4946978;28;20479;-71
2023/09/16 14:07:46;;;;;;;0.10;0.10;;;23.90;99.90;;;;;;4939187;29;20499;-72
2023/09/16 14:10:13;;;;;;;0.50;0.50;;;24.00;99.90;;;;;;4946440;28;20559;-72
2023/09/16 14:12:40;;;;;;;0.10;0.10;;;24.00;99.90;;;;;;4946928;29;20633;-72
2023/09/16 14:15:07;;;;;;;0.20;0.20;;;24.00;99.90;;;;;;4943879;29;20477;-72
2023/09/16 14:17:35;;;;;;;0.10;0.10;;;24.00;99.90;;;;;;4940492;28;21007;-72
2023/09/16 14:20:03;;;;;;;0.10;0.10;;;24.00;99.90;;;;;;4944005;29;20486;-71
2023/09/16 14:22:29;;;;;;;0.10;0.10;;;23.90;99.90;;;;;;4936421;29;20474;-72
2023/09/16 14:24:56;;;;;;;0.10;0.10;;;23.80;99.90;;;;;;4945249;29;20469;-72
2023/09/16 14:27:23;;;;;;;0.10;0.10;;;23.90;99.90;;;;;;4943768;29;21036;-71
2023/09/16 14:29:50;;;;;;;0.10;0.10;;;23.80;99.90;;;;;;4947435;29;20858;-72
2023/09/16 14:32:17;;;;;;;0.10;0.10;;;23.90;99.90;;;;;;4948725;29;20474;-72
2023/09/16 14:34:45;;;;;;;0.10;0.10;;;23.80;99.90;;;;;;4933464;29;20463;-73
2023/09/16 14:37:15;;;;;;;0.10;0.10;;;23.80;99.90;;;;;;4940210;29;20460;-72
2023/09/16 14:39:41;;;;;;;0.10;0.10;;;23.80;99.90;;;;;;4948240;29;20499;-73
2023/09/16 14:42:08;;;;;;;0.10;0.10;;;23.90;99.90;;;;;;4938969;29;20464;-73
2023/09/16 14:44:35;;;;;;;0.10;0.10;;;23.80;99.90;;;;;;4938578;29;20947;-73
2023/09/16 14:47:04;;;;;;;0.10;0.10;;;23.80;99.90;;;;;;4944495;29;20473;-73
2023/09/16 14:49:31;;;;;;;0.10;0.10;;;23.80;99.90;;;;;;4940399;28;20555;-72
2023/09/16 14:51:59;;;;;;;0.10;0.10;;;23.70;99.90;;;;;;4938446;29;20550;-72
2023/09/16 14:54:27;;;;;;;0.10;0.10;;;23.70;99.90;;;;;;4954223;29;20462;-72
2023/09/16 14:56:54;;;;;;;0.10;0.10;;;23.60;99.90;;;;;;4938343;29;20494;-72
2023/09/16 14:59:21;;;;;;;0.10;0.10;;;23.70;99.90;;;;;;4938795;29;20864;-73
2023/09/16 15:01:48;;;;;;;0.10;0.10;;;23.70;99.90;;;;;;4944063;29;20847;-72
2023/09/16 15:04:16;;;;;;;0.10;0.10;;;23.60;99.90;;;;;;4952115;28;20471;-72
2023/09/16 15:06:43;;;;;;;0.10;0.10;;;23.70;99.90;;;;;;4947955;28;20529;-72
2023/09/16 15:09:12;;;;;;;0.10;0.10;;;23.60;99.90;;;;;;4948178;29;20896;-72
2023/09/16 15:11:39;;;;;;;0.30;0.30;;;23.60;99.90;;;;;;4942391;29;20966;-72
2023/09/16 15:14:07;;;;;;;0.10;0.10;;;23.50;99.90;;;;;;4953148;28;20495;-72
2023/09/16 15:16:34;;;;;;;0.10;0.10;;;23.70;99.90;;;;;;4940540;29;20470;-73
2023/09/16 15:19:02;;;;;;;0.10;0.10;;;23.70;99.90;;;;;;4947548;29;20863;-72
2023/09/16 15:21:29;;;;;;;0.10;0.10;;;23.70;99.90;;;;;;4949288;29;20462;-72
2023/09/16 15:23:56;;;;;;;0.10;0.10;;;23.70;99.90;;;;;;4952910;28;20473;-72
2023/09/16 15:26:24;;;;;;;0.10;0.10;;;23.70;99.90;;;;;;4946031;29;20534;-71
2023/09/16 15:28:51;;;;;;;0.53;0.53;;;23.70;99.90;;;;;;4948932;28;20482;-71
2023/09/16 15:31:18;;;;;;;0.10;0.10;;;23.70;99.90;;;;;;4940951;28;20501;-70
2023/09/16 15:33:45;;;;;;;0.10;0.10;;;23.60;99.90;;;;;;4937544;29;20463;-70
2023/09/16 15:36:12;;;;;;;0.10;0.10;;;23.50;99.90;;;;;;4944664;29;20462;-71
2023/09/16 15:38:38;;;;;;;0.10;0.10;;;23.40;99.90;;;;;;4940655;28;20848;-71
2023/09/16 15:41:05;;;;;;;0.10;0.10;;;23.30;99.90;;;;;;4941789;28;20552;-71
2023/09/16 15:43:34;;;;;;;0.27;0.27;;;23.30;99.90;;;;;;4937649;29;20477;-71
2023/09/16 15:46:02;;;;;;;0.10;0.10;;;23.40;99.90;;;;;;4937763;29;20489;-71
2023/09/16 15:48:29;;;;;;;0.10;0.10;;;23.40;99.90;;;;;;4937489;29;20497;-71
2023/09/16 15:50:57;;;;;;;0.10;0.10;;;23.40;99.90;;;;;;4937226;29;20474;-71
2023/09/16 15:53:25;;;;;;;0.50;0.50;;;23.50;99.90;;;;;;4937544;29;20964;-71
2023/09/16 15:55:52;;;;;;;0.10;0.10;;;23.40;99.90;;;;;;4945452;29;20546;-71
2023/09/16 15:58:19;;;;;;;0.23;0.23;;;23.30;99.90;;;;;;4937364;29;20491;-72
2023/09/16 16:00:51;;;;;;;0.20;0.20;;;23.30;99.90;;;;;;4931932;29;20475;-73
2023/09/16 16:03:19;;;;;;;0.10;0.10;;;23.30;99.90;;;;;;4938729;29;20559;-72
2023/09/16 16:05:46;;;;;;;0.10;0.10;;;23.30;99.90;;;;;;4936126;29;20466;-71
2023/09/16 16:08:15;;;;;;;0.10;0.10;;;23.20;99.90;;;;;;4936867;29;20504;-72
2023/09/16 16:10:44;;;;;;;0.10;0.10;;;23.20;99.90;;;;;;4937484;29;20462;-72
2023/09/16 16:13:11;;;;;;;0.10;0.10;;;23.10;99.90;;;;;;4941973;29;20968;-71
2023/09/16 16:15:38;;;;;;;0.20;0.20;;;23.10;99.90;;;;;;4940697;28;20525;-72
2023/09/16 16:18:07;;;;;;;0.10;0.10;;;23.10;99.90;;;;;;4963857;23;20501;-71
2023/09/16 16:20:34;;;;;;;0.10;0.10;;;23.00;99.90;;;;;;4955047;28;20497;-69
2023/09/16 16:23:01;;;;;;;0.10;0.10;;;23.00;99.90;;;;;;4955893;28;20472;-69
2023/09/16 16:25:29;;;;;;;0.43;0.43;;;23.00;99.90;;;;;;4954815;28;20465;-70
2023/09/16 16:27:56;;;;;;;0.20;0.20;;;22.90;99.90;;;;;;4954001;28;20917;-70
2023/09/16 16:30:22;;;;;;;0.87;0.67;;;22.90;99.90;;;;;;4945165;28;20470;-70
2023/09/16 16:32:50;;;;;;;0.10;0.10;;;22.80;99.90;;;;;;4936569;29;20959;-70
2023/09/16 16:35:18;;;;;;;0.10;0.10;;;22.80;99.90;;;;;;4936553;29;20473;-70
2023/09/16 16:37:46;;;;;;;0.10;0.10;;;22.70;99.90;;;;;;4936229;29;20462;-70
2023/09/16 16:40:14;;;;;;;0.10;0.10;;;22.60;99.90;;;;;;4937520;29;20489;-70
2023/09/16 16:42:41;;;;;;;0.10;0.10;;;22.60;99.90;;;;;;4942729;28;20466;-71
2023/09/16 16:45:08;;;;;;;0.10;0.10;;;22.50;99.90;;;;;;4935888;29;20967;-71
2023/09/16 16:47:37;;;;;;;0.10;0.10;;;22.40;99.90;;;;;;4938783;29;20470;-70
2023/09/16 16:50:04;;;;;;;0.10;0.10;;;22.40;99.90;;;;;;4941141;28;20501;-70